Time;durP1;ratioP1;P1;durP2;ratioP2;P2;SDS_P1;SDS_P2;PMS_P1;PMS_P2;Temp;Humidity;BMP_temperature;BMP_pressure;BME280_temperature;BME280_humidity;BME280_pressure;Samples;Min_cycle;Max_cycle;Signal;HPM_P1;HPM_P2
2022/12/14 00:00:41;;;;;;;22.93;11.93;;;;;;;-9.61;99.11;100097.41;5023473;28;20044;-74
2022/12/14 00:03:07;;;;;;;23.37;11.63;;;;;;;-9.54;99.27;100100.44;5023050;28;20037;-75
2022/12/14 00:05:33;;;;;;;19.13;10.07;;;;;;;-9.49;99.35;100099.06;5024610;28;20083;-75
2022/12/14 00:07:58;;;;;;;24.30;10.63;;;;;;;-9.50;98.39;100088.78;5024233;28;20461;-74
2022/12/14 00:10:23;;;;;;;25.07;11.97;;;;;;;-9.44;98.97;100078.06;5024249;28;20034;-74
2022/12/14 00:12:49;;;;;;;22.67;12.07;;;;;;;-9.42;98.47;100072.28;5023103;28;20068;-75
2022/12/14 00:15:14;;;;;;;20.20;10.20;;;;;;;-9.34;98.74;100072.78;5021168;28;20072;-74
2022/12/14 00:17:39;;;;;;;22.17;12.17;;;;;;;-9.23;98.75;100066.69;5022273;28;20065;-74
2022/12/14 00:20:05;;;;;;;18.53;9.97;;;;;;;-9.19;99.12;100063.56;5024967;28;20048;-74
2022/12/14 00:22:30;;;;;;;20.87;10.87;;;;;;;-9.16;97.71;100067.97;5023612;28;20038;-74
2022/12/14 00:24:55;;;;;;;18.27;10.40;;;;;;;-9.14;98.30;100062.19;5023730;28;20029;-74
2022/12/14 00:27:21;;;;;;;17.53;9.23;;;;;;;-9.07;98.35;100058.34;5026571;28;20033;-74
2022/12/14 00:29:46;;;;;;;17.53;8.90;;;;;;;-9.03;98.49;100060.31;5022140;28;20042;-75
2022/12/14 00:32:11;;;;;;;19.43;10.80;;;;;;;-9.01;98.24;100056.19;5025442;28;20076;-75
2022/12/14 00:34:37;;;;;;;19.70;10.30;;;;;;;-8.93;97.85;100060.09;5022278;28;20096;-74
2022/12/14 00:37:02;;;;;;;15.90;9.40;;;;;;;-8.82;98.40;100051.44;5024211;28;20033;-75
2022/12/14 00:39:28;;;;;;;19.47;10.17;;;;;;;-8.77;97.43;100049.16;5023448;28;20038;-75
2022/12/14 00:41:54;;;;;;;17.53;9.80;;;;;;;-8.75;98.23;100046.69;5022997;28;20530;-74
2022/12/14 00:44:20;;;;;;;21.97;11.33;;;;;;;-8.70;98.25;100047.88;5024594;28;20037;-74
2022/12/14 00:46:45;;;;;;;21.30;11.03;;;;;;;-8.66;97.26;100050.72;5021492;28;20034;-75
2022/12/14 00:49:11;;;;;;;22.70;11.53;;;;;;;-8.72;97.00;100046.88;5024969;28;20480;-75
2022/12/14 00:51:36;;;;;;;20.20;10.20;;;;;;;-8.75;97.17;100041.56;5005748;28;20032;-75
2022/12/14 00:54:01;;;;;;;19.00;10.33;;;;;;;-8.67;98.09;100045.50;5023754;28;20069;-74
2022/12/14 00:56:27;;;;;;;21.60;11.13;;;;;;;-8.70;97.82;100041.06;5026207;28;20127;-74
2022/12/14 00:58:53;;;;;;;22.07;10.97;;;;;;;-8.69;97.71;100041.97;5022505;28;20086;-75
2022/12/14 01:01:19;;;;;;;20.57;10.17;;;;;;;-8.69;97.75;100044.53;5024622;28;20037;-75
2022/12/14 01:03:44;;;;;;;17.97;10.20;;;;;;;-8.65;97.37;100046.47;5021506;28;20088;-75
2022/12/14 01:06:18;;;;;;;22.63;10.10;;;;;;;-8.59;97.10;100036.66;5023983;28;20033;-74
2022/12/14 01:08:44;;;;;;;22.37;10.23;;;;;;;-8.53;97.97;100039.56;5023710;28;20119;-74
2022/12/14 01:11:10;;;;;;;21.57;11.90;;;;;;;-8.56;97.72;100039.38;5021728;28;20030;-75
2022/12/14 01:13:36;;;;;;;17.30;9.17;;;;;;;-8.60;96.51;100040.84;5022856;28;20506;-75
2022/12/14 01:16:07;;;;;;;19.77;11.17;;;;;;;-8.61;96.55;100040.78;5021459;28;20069;-75
2022/12/14 01:18:35;;;;;;;19.30;9.50;;;;;;;-8.74;96.04;100038.25;5021409;28;20119;-74
2022/12/14 01:21:07;;;;;;;19.63;10.43;;;;;;;-8.71;96.79;100038.44;5022019;28;20535;-74
2022/12/14 01:23:32;;;;;;;;;;;;;;;-8.68;97.03;100043.72;5018547;28;20120;-75
2022/12/14 01:25:58;;;;;;;22.07;11.40;;;;;;;-8.69;97.34;100047.09;5020722;28;19920;-74
2022/12/14 01:28:23;;;;;;;19.87;11.07;;;;;;;-8.68;97.01;100041.19;5022403;28;20052;-75
2022/12/14 01:30:48;;;;;;;21.70;10.90;;;;;;;-8.61;98.23;100035.66;5022147;28;20088;-75
2022/12/14 01:33:14;;;;;;;21.10;11.50;;;;;;;-8.55;97.74;100033.47;5045094;22;20098;-73
2022/12/14 01:35:39;;;;;;;24.23;11.37;;;;;;;-8.49;97.33;100032.94;5020336;28;20037;-73
2022/12/14 01:38:04;;;;;;;20.07;11.53;;;;;;;-8.46;98.50;100023.81;5024252;28;20373;-73
2022/12/14 01:40:30;;;;;;;21.97;10.43;;;;;;;-8.34;98.07;100021.06;5021304;28;20720;-73
2022/12/14 01:42:55;;;;;;;20.17;10.87;;;;;;;-8.23;97.72;100020.03;5022896;28;20495;-73
2022/12/14 01:45:21;;;;;;;19.77;9.47;;;;;;;-8.21;97.26;100020.13;5022632;28;20088;-73
2022/12/14 01:47:56;;;;;;;20.10;10.87;;;;;;;-8.18;97.26;100018.63;5021643;28;20553;-73
2022/12/14 01:50:29;;;;;;;20.93;11.10;;;;;;;-8.17;97.54;100014.41;5026502;28;20130;-72
2022/12/14 01:53:04;;;;;;;19.13;11.03;;;;;;;-8.09;97.22;100013.19;5022546;28;20034;-73
2022/12/14 01:55:37;;;;;;;22.30;11.23;;;;;;;-8.06;97.07;100005.69;5020441;28;20030;-73
2022/12/14 01:58:05;;;;;;;;;;;;;;;-7.97;97.77;100010.44;5025753;28;20041;-73
2022/12/14 02:00:31;;;;;;;18.07;10.33;;;;;;;-7.93;97.23;100007.28;5021189;28;19913;-72
2022/12/14 02:03:04;;;;;;;21.37;11.20;;;;;;;-7.96;96.40;100014.81;5023616;28;20032;-73
2022/12/14 02:05:34;;;;;;;22.30;11.83;;;;;;;-8.06;96.78;100013.38;5021538;28;20046;-73
2022/12/14 02:07:59;;;;;;;21.10;11.20;;;;;;;-8.14;96.87;100004.34;5021443;28;20592;-73
2022/12/14 02:10:28;;;;;;;23.40;11.03;;;;;;;-8.11;97.80;99995.97;5023207;28;20064;-73
2022/12/14 02:13:17;;;;;;;19.10;9.77;;;;;;;-8.00;98.13;99993.22;5020252;28;20100;-72
2022/12/14 02:15:42;;;;;;;21.77;11.53;;;;;;;-7.91;97.47;99990.34;5019925;28;20392;-72
2022/12/14 02:18:13;;;;;;;20.77;10.83;;;;;;;-7.85;96.78;99977.88;5022845;28;20043;-72
2022/12/14 02:21:04;;;;;;;24.00;11.67;;;;;;;-7.78;96.81;99989.34;5021992;28;20117;-72
2022/12/14 02:24:05;;;;;;;22.43;11.07;;;;;;;-7.72;97.38;99988.03;5023305;28;20041;-72
2022/12/14 02:26:52;;;;;;;23.17;11.23;;;;;;;-7.66;96.53;99986.63;5026556;28;20037;-72
2022/12/14 02:29:40;;;;;;;19.27;9.83;;;;;;;-7.61;97.22;99990.34;5026865;28;20099;-73
2022/12/14 02:32:17;;;;;;;20.27;10.63;;;;;;;-7.63;96.59;99984.22;5019937;28;20218;-72
2022/12/14 02:35:08;;;;;;;22.13;10.63;;;;;;;-7.58;97.04;99983.69;5021173;28;20121;-73
2022/12/14 02:37:43;;;;;;;18.37;9.40;;;;;;;-7.55;97.02;99976.19;5021461;28;20041;-72
2022/12/14 02:40:24;;;;;;;18.13;9.33;;;;;;;-7.54;96.65;99977.97;5022775;28;20610;-72
2022/12/14 02:43:03;;;;;;;20.83;10.10;;;;;;;-7.52;96.10;99976.38;5020629;28;20037;-73
2022/12/14 02:45:34;;;;;;;20.00;9.37;;;;;;;-7.52;96.38;99978.03;5020544;28;20120;-72
2022/12/14 02:48:03;;;;;;;21.07;11.27;;;;;;;-7.54;96.67;99980.53;5020690;28;20041;-73
2022/12/14 02:50:52;;;;;;;23.03;11.77;;;;;;;-7.55;96.51;99975.31;5022969;28;20103;-72
2022/12/14 02:53:34;;;;;;;17.10;9.37;;;;;;;-7.57;96.64;99980.34;5022935;28;20033;-73
2022/12/14 02:56:15;;;;;;;19.43;10.13;;;;;;;-7.57;95.84;99980.34;5023556;28;20041;-73
2022/12/14 02:58:46;;;;;;;19.07;10.23;;;;;;;-7.57;96.10;99980.34;5021835;28;20132;-72
2022/12/14 03:01:15;;;;;;;21.90;10.87;;;;;;;-7.63;95.44;99972.28;5020255;28;20081;-72
2022/12/14 03:03:40;;;;;;;21.63;11.17;;;;;;;-7.70;95.37;99972.78;5022669;28;20091;-72
2022/12/14 03:06:24;;;;;;;20.57;10.27;;;;;;;-7.70;96.43;99972.78;5019575;28;20049;-73
2022/12/14 03:08:52;;;;;;;19.87;10.40;;;;;;;-7.74;95.78;99968.25;5019549;28;20034;-72
2022/12/14 03:11:26;;;;;;;21.57;10.20;;;;;;;-7.79;95.38;99961.97;5022286;28;20488;-72
2022/12/14 03:14:03;;;;;;;22.27;10.97;;;;;;;-7.77;96.69;99961.28;5021782;28;20037;-72
2022/12/14 03:16:34;;;;;;;20.23;9.70;;;;;;;-7.76;95.95;99957.03;5028557;28;20022;-73
2022/12/14 03:19:14;;;;;;;21.33;10.83;;;;;;;-7.77;96.33;99953.59;5026973;28;20045;-72
2022/12/14 03:21:46;;;;;;;20.33;11.03;;;;;;;-7.76;95.96;99957.03;5024198;28;20045;-73
2022/12/14 03:24:18;;;;;;;21.83;10.25;;;;;;;-7.79;96.17;99951.72;5030495;28;20046;-72
2022/12/14 03:26:52;;;;;;;19.95;11.07;;;;;;;-7.78;96.42;99953.47;5035469;28;20479;-72
2022/12/14 03:29:27;;;;;;;20.67;10.10;;;;;;;-7.72;96.27;99953.84;5024994;28;20496;-73
2022/12/14 03:31:58;;;;;;;21.03;10.97;;;;;;;-7.74;95.57;99950.31;5023148;28;20496;-72
2022/12/14 03:34:30;;;;;;;19.88;10.43;;;;;;;-7.82;95.86;99951.56;5025386;28;20033;-72
2022/12/14 03:37:03;;;;;;;22.23;10.97;;;;;;;-7.89;95.88;99952.88;5025825;28;20033;-73
2022/12/14 03:39:33;;;;;;;18.50;10.03;;;;;;;-7.83;96.06;99955.81;5023670;28;20932;-72
2022/12/14 03:42:08;;;;;;;22.57;10.83;;;;;;;-7.81;95.96;99943.94;5024844;28;20128;-73
2022/12/14 03:44:44;;;;;;;20.40;10.47;;;;;;;-7.74;97.17;99933.25;5026260;28;20046;-73
2022/12/14 03:47:44;;;;;;;19.27;9.37;;;;;;;-7.72;96.88;99923.09;5024296;28;20179;-73
2022/12/14 03:50:23;;;;;;;19.40;10.47;;;;;;;-7.76;96.45;99933.97;5026497;28;20034;-72
2022/12/14 03:52:58;;;;;;;19.53;9.93;;;;;;;-7.72;96.46;99933.34;5026801;28;20298;-73
2022/12/14 03:55:38;;;;;;;21.40;10.60;;;;;;;-7.72;95.91;99933.34;5036969;28;20072;-73
2022/12/14 03:58:21;;;;;;;22.87;11.50;;;;;;;-7.88;95.34;99933.28;5027992;28;20056;-73
2022/12/14 04:00:56;;;;;;;20.45;10.18;;;;;;;-7.97;95.29;99931.06;5027521;28;20496;-72
2022/12/14 04:03:28;;;;;;;22.27;12.30;;;;;;;-7.99;96.47;99918.19;5025826;28;20037;-73
2022/12/14 04:06:04;;;;;;;22.35;11.02;;;;;;;-7.83;97.18;99913.91;5030173;28;20033;-73
2022/12/14 04:08:52;;;;;;;21.57;10.93;;;;;;;-7.73;97.46;99906.88;5008750;28;20100;-73
2022/12/14 04:20:01;;;;;;;21.57;10.57;;;;;;;-7.25;97.34;99886.41;5022385;28;20460;-73
2022/12/14 04:22:31;;;;;;;21.70;11.33;;;;;;;-7.16;96.96;99886.00;5023995;28;20041;-73
2022/12/14 04:28:00;;;;;;;20.27;10.50;;;;;;;-6.97;97.41;99888.75;5026292;28;20048;-73
2022/12/14 04:30:30;;;;;;;20.57;10.50;;;;;;;-6.92;97.17;99882.19;5024218;28;20049;-74
2022/12/14 04:33:45;;;;;;;19.70;9.90;;;;;;;-6.85;97.87;99880.84;5022524;28;20034;-74
2022/12/14 04:35:48;;;;;;;19.13;9.73;;;;;;;-6.84;97.13;99868.09;5024749;28;20121;-74
2022/12/14 04:38:20;;;;;;;19.53;9.73;;;;;;;-6.84;96.24;99865.53;5021964;28;20477;-74
2022/12/14 04:40:51;;;;;;;20.05;9.32;;;;;;;-6.89;96.15;99859.28;5027454;28;20515;-74
2022/12/14 04:43:21;;;;;;;19.93;10.07;;;;;;;-6.88;96.35;99858.47;5019951;28;20041;-74
2022/12/14 04:46:23;;;;;;;17.90;9.30;;;;;;;-6.84;96.97;99859.50;5021663;28;20089;-74
2022/12/14 04:48:57;;;;;;;16.37;9.50;;;;;;;-6.81;96.80;99851.97;4984137;28;20054;-74
2022/12/14 04:51:45;;;;;;;19.33;9.73;;;;;;;-6.73;96.61;99842.09;5024262;28;20044;-74
2022/12/14 04:54:22;;;;;;;20.67;9.93;;;;;;;-6.75;96.38;99838.59;5025086;28;20041;-74
2022/12/14 04:56:55;;;;;;;16.93;8.70;;;;;;;-6.75;97.04;99842.03;5026909;28;20037;-74
2022/12/14 04:59:21;;;;;;;16.77;8.47;;;;;;;-6.78;96.65;99841.00;5024840;28;20029;-75
2022/12/14 05:02:06;;;;;;;18.60;10.00;;;;;;;-6.81;96.49;99834.03;5024663;28;20041;-74
2022/12/14 05:04:40;;;;;;;21.10;10.57;;;;;;;-6.89;95.33;99830.16;5024737;28;20037;-74
2022/12/14 05:07:35;;;;;;;19.33;10.50;;;;;;;-7.11;96.40;99838.41;5005445;28;20040;-74
2022/12/14 05:10:15;;;;;;;19.27;10.50;;;;;;;-7.38;96.47;99835.28;5024794;28;20545;-74
2022/12/14 05:13:03;;;;;;;18.63;9.47;;;;;;;-7.42;96.96;99830.78;5023941;28;20029;-74
2022/12/14 05:15:38;;;;;;;21.37;11.07;;;;;;;-7.44;97.08;99828.13;5028511;28;20117;-74
2022/12/14 05:18:04;;;;;;;18.97;9.17;;;;;;;-7.46;97.67;99818.59;5023398;28;20403;-74
2022/12/14 05:20:30;;;;;;;19.87;10.23;;;;;;;-7.41;97.73;99812.00;5025121;28;20041;-74
2022/12/14 05:22:55;;;;;;;22.00;10.60;;;;;;;-7.43;98.49;99809.38;5021059;28;20373;-74
2022/12/14 05:25:21;;;;;;;18.43;9.90;;;;;;;-7.39;98.61;99800.16;5024718;28;20045;-74
2022/12/14 05:27:46;;;;;;;17.97;9.47;;;;;;;-7.35;97.66;99809.78;5026983;28;20415;-74
2022/12/14 05:30:12;;;;;;;16.73;9.53;;;;;;;-7.37;97.82;99808.81;5026180;28;20064;-74
2022/12/14 05:32:38;;;;;;;16.70;9.23;;;;;;;-7.47;96.92;99811.69;5024437;28;20407;-74
2022/12/14 05:35:05;;;;;;;18.77;9.40;;;;;;;-7.58;96.71;99806.88;5025531;28;20041;-74
2022/12/14 05:37:30;;;;;;;19.43;10.10;;;;;;;-7.66;96.57;99812.38;5020563;28;20037;-74
2022/12/14 05:39:55;;;;;;;20.87;10.33;;;;;;;-7.79;96.72;99806.59;5026089;28;20030;-74
2022/12/14 05:42:21;;;;;;;20.60;11.33;;;;;;;-7.94;96.60;99810.84;5020587;28;20056;-73
2022/12/14 05:44:46;;;;;;;19.17;9.80;;;;;;;-8.01;97.11;99807.09;5019113;28;20033;-74
2022/12/14 05:47:12;;;;;;;17.00;9.67;;;;;;;-8.04;98.32;99798.34;5022945;28;20041;-74
2022/12/14 05:49:37;;;;;;;22.07;10.67;;;;;;;-8.04;98.27;99789.00;5024704;28;20108;-74
2022/12/14 05:52:03;;;;;;;18.10;10.70;;;;;;;-8.05;98.39;99783.78;5023359;28;20038;-74
2022/12/14 05:54:28;;;;;;;18.17;9.30;;;;;;;-8.09;98.34;99786.97;5023603;28;20052;-74
2022/12/14 05:56:54;;;;;;;17.87;9.77;;;;;;;-8.11;98.11;99789.44;5030404;28;20035;-74
2022/12/14 05:59:19;;;;;;;18.70;9.83;;;;;;;-8.07;99.01;99781.13;5020717;28;20037;-74
2022/12/14 06:01:45;;;;;;;28.60;14.20;;;;;;;-8.04;98.75;99780.41;5020644;28;20040;-74
2022/12/14 06:04:14;;;;;;;23.37;13.13;;;;;;;-8.02;98.50;99783.94;5023033;28;20495;-74
2022/12/14 06:06:40;;;;;;;25.47;13.80;;;;;;;-8.02;98.97;99781.38;5020034;28;20129;-74
2022/12/14 06:09:07;;;;;;;24.80;12.93;;;;;;;-7.98;99.40;99776.53;5022951;28;20041;-74
2022/12/14 06:11:36;;;;;;;25.80;11.97;;;;;;;-7.96;98.97;99779.19;5024367;28;20041;-74
2022/12/14 06:14:02;;;;;;;25.97;12.30;;;;;;;-7.97;99.60;99777.41;5003329;28;20042;-74
2022/12/14 06:16:27;;;;;;;26.93;13.47;;;;;;;-7.97;99.96;99770.59;5026594;28;20064;-74
2022/12/14 06:18:54;;;;;;;21.93;11.30;;;;;;;-7.90;99.65;99770.94;5023513;28;20036;-74
2022/12/14 06:21:22;;;;;;;20.20;11.40;;;;;;;-7.87;100.00;99766.00;5020953;28;20040;-74
2022/12/14 06:23:48;;;;;;;24.93;11.97;;;;;;;-7.85;100.00;99762.72;5021603;28;20408;-74
2022/12/14 06:26:14;;;;;;;19.90;10.70;;;;;;;-7.83;100.00;99756.00;5026460;28;20025;-74
2022/12/14 06:28:40;;;;;;;22.20;11.57;;;;;;;-7.81;100.00;99750.94;5020338;28;20435;-74
2022/12/14 06:31:06;;;;;;;21.23;11.30;;;;;;;-7.77;100.00;99760.56;5023261;28;20033;-74
2022/12/14 06:33:34;;;;;;;25.53;12.80;;;;;;;-7.79;99.66;99760.47;5020382;28;20399;-74
2022/12/14 06:35:59;;;;;;;28.63;14.07;;;;;;;-7.80;100.00;99753.59;5026982;28;20612;-74
2022/12/14 06:38:25;;;;;;;20.30;10.87;;;;;;;-7.83;99.63;99752.53;5026059;28;20025;-74
2022/12/14 06:40:50;;;;;;;20.67;11.10;;;;;;;-7.84;100.00;99748.22;5024310;28;20504;-74
2022/12/14 06:43:15;;;;;;;25.70;12.07;;;;;;;-7.88;99.70;99747.19;5029117;28;20639;-74
2022/12/14 06:45:41;;;;;;;22.90;12.13;;;;;;;-7.88;99.79;99746.31;5026164;28;20511;-74
2022/12/14 06:48:06;;;;;;;22.73;11.07;;;;;;;-7.89;100.00;99745.41;5021726;28;20046;-74
2022/12/14 06:50:31;;;;;;;23.27;10.63;;;;;;;-7.91;100.00;99741.00;5025084;28;20041;-74
2022/12/14 06:52:57;;;;;;;19.13;10.27;;;;;;;-7.95;100.00;99740.84;5026459;28;20490;-74
2022/12/14 06:55:24;;;;;;;20.37;10.50;;;;;;;-7.98;100.00;99735.53;5019299;28;20557;-74
2022/12/14 06:57:53;;;;;;;20.67;11.67;;;;;;;-7.98;100.00;99740.66;5026651;28;20025;-74
2022/12/14 07:00:21;;;;;;;22.43;12.67;;;;;;;-8.00;100.00;99739.69;5026822;28;20548;-74
2022/12/14 07:02:46;;;;;;;20.83;11.67;;;;;;;-8.02;100.00;99741.28;5021661;28;20033;-74
2022/12/14 07:05:13;;;;;;;21.97;11.27;;;;;;;-8.06;100.00;99728.25;5026928;28;20056;-74
2022/12/14 07:07:39;;;;;;;22.30;12.10;;;;;;;-8.10;100.00;99724.63;5027923;28;20029;-73
2022/12/14 07:10:05;;;;;;;23.67;11.93;;;;;;;-8.13;100.00;99726.16;5021451;28;20519;-74
2022/12/14 07:12:30;;;;;;;24.37;11.87;;;;;;;-8.18;99.81;99721.63;5022776;28;20033;-74
2022/12/14 07:14:56;;;;;;;22.23;11.67;;;;;;;-8.21;99.63;99718.03;5020054;28;20040;-74
2022/12/14 07:17:21;;;;;;;20.90;10.20;;;;;;;-8.23;99.31;99715.38;5024417;28;20037;-74
2022/12/14 07:19:47;;;;;;;16.83;9.63;;;;;;;-8.23;100.00;99719.63;5021139;28;20121;-74
2022/12/14 07:22:13;;;;;;;20.53;10.87;;;;;;;-8.24;100.00;99711.06;5023155;28;20042;-74
2022/12/14 07:24:40;;;;;;;20.70;10.53;;;;;;;-8.25;99.62;99708.41;5021812;28;20030;-74
2022/12/14 07:27:06;;;;;;;18.90;9.73;;;;;;;-8.28;99.29;99711.69;5024802;28;20682;-74
2022/12/14 07:29:31;;;;;;;17.47;9.97;;;;;;;-8.28;98.60;99708.25;5025636;28;20037;-74
2022/12/14 07:31:56;;;;;;;22.13;12.00;;;;;;;-8.27;99.09;99703.22;5023078;28;20049;-74
2022/12/14 07:34:22;;;;;;;18.30;9.40;;;;;;;-8.24;99.16;99698.28;5024630;28;20030;-74
2022/12/14 07:36:49;;;;;;;21.20;9.90;;;;;;;-8.20;99.27;99702.78;5019998;28;20096;-73
2022/12/14 07:39:15;;;;;;;19.67;10.53;;;;;;;-8.19;98.89;99696.84;5022443;28;20080;-74
2022/12/14 07:41:42;;;;;;;24.10;11.03;;;;;;;-8.14;99.30;99694.53;5022938;28;20037;-74
2022/12/14 07:44:08;;;;;;;20.20;10.77;;;;;;;-8.09;99.20;99698.25;5022370;28;20556;-74
2022/12/14 07:46:34;;;;;;;21.60;11.67;;;;;;;-8.02;99.39;99692.63;5020546;28;20128;-74
2022/12/14 07:49:00;;;;;;;23.23;11.50;;;;;;;-7.95;99.51;99681.94;5021228;28;20124;-74
2022/12/14 07:51:28;;;;;;;23.50;11.37;;;;;;;-7.89;99.22;99688.19;5019646;28;20042;-74
2022/12/14 07:53:55;;;;;;;22.37;10.73;;;;;;;-7.82;99.38;99678.34;5027223;28;20037;-74
2022/12/14 07:56:23;;;;;;;17.40;10.00;;;;;;;-7.73;98.52;99683.06;5029143;28;20026;-74
2022/12/14 07:58:50;;;;;;;20.93;10.43;;;;;;;-7.62;99.10;99681.97;5020632;28;20091;-74
2022/12/14 08:01:22;;;;;;;19.50;9.30;;;;;;;-7.50;99.14;99679.13;5021515;28;20033;-74
2022/12/14 08:03:50;;;;;;;18.00;9.82;;;;;;;-7.39;98.98;99672.00;5023217;28;20033;-74
2022/12/14 08:06:17;;;;;;;21.60;10.43;;;;;;;-7.31;98.53;99666.47;5025371;28;20061;-74
2022/12/14 08:08:43;;;;;;;20.60;11.57;;;;;;;-7.20;98.34;99664.47;5023353;28;20037;-74
2022/12/14 08:11:09;;;;;;;23.03;11.63;;;;;;;-7.13;98.14;99661.38;5028778;28;20120;-74
2022/12/14 08:13:37;;;;;;;21.83;11.43;;;;;;;-7.06;97.54;99663.44;5026478;28;20029;-74
2022/12/14 08:16:09;;;;;;;22.60;11.03;;;;;;;-7.02;97.31;99663.59;5021831;28;20037;-74
2022/12/14 08:18:35;;;;;;;19.63;10.57;;;;;;;-6.94;97.63;99658.06;5030656;28;20120;-74
2022/12/14 08:21:01;;;;;;;20.57;10.97;;;;;;;-6.93;97.09;99653.81;5025529;28;20217;-74
2022/12/14 08:23:27;;;;;;;22.73;12.13;;;;;;;-6.87;97.67;99646.41;5029374;28;20053;-74
2022/12/14 08:25:54;;;;;;;21.20;11.23;;;;;;;-6.75;97.66;99643.56;5024830;28;20532;-74
2022/12/14 08:28:20;;;;;;;19.00;11.20;;;;;;;-6.64;97.74;99648.38;5032122;28;20033;-74
2022/12/14 08:30:46;;;;;;;19.60;10.97;;;;;;;-6.49;98.08;99650.81;5025567;28;20034;-74
2022/12/14 08:33:11;;;;;;;19.13;10.10;;;;;;;-6.35;97.26;99650.59;5025115;28;20032;-74
2022/12/14 08:35:36;;;;;;;21.13;11.70;;;;;;;-6.23;97.24;99648.59;5026372;28;20029;-74
2022/12/14 08:38:02;;;;;;;18.40;11.57;;;;;;;-6.10;96.77;99647.44;5024850;28;20404;-74
2022/12/14 08:40:28;;;;;;;18.20;10.77;;;;;;;-6.01;97.20;99642.75;5025864;28;20048;-74
2022/12/14 08:42:53;;;;;;;22.40;11.33;;;;;;;-5.87;96.70;99638.19;5024722;28;20121;-74
2022/12/14 08:45:18;;;;;;;21.27;11.70;;;;;;;-5.73;96.29;99640.56;5027710;28;20041;-74
2022/12/14 08:47:45;;;;;;;19.83;10.67;;;;;;;-5.56;95.91;99632.72;5023934;28;20072;-74
2022/12/14 08:50:11;;;;;;;19.23;10.97;;;;;;;-5.42;95.21;99631.63;5030247;28;20437;-74
2022/12/14 08:52:37;;;;;;;25.00;12.83;;;;;;;-5.28;95.39;99625.38;5027241;28;20121;-74
2022/12/14 08:55:03;;;;;;;32.00;17.53;;;;;;;-5.06;96.18;99631.41;5026016;28;20566;-74
2022/12/14 08:57:28;;;;;;;34.27;18.20;;;;;;;-4.81;95.64;99619.56;5025926;28;20033;-74
2022/12/14 08:59:54;;;;;;;25.53;13.73;;;;;;;-4.65;94.33;99621.94;5022765;28;20034;-74
2022/12/14 09:02:19;;;;;;;22.43;12.10;;;;;;;-4.51;94.08;99612.16;5027169;28;20040;-74
2022/12/14 09:04:45;;;;;;;22.70;12.40;;;;;;;-4.44;93.41;99604.72;5031201;28;20116;-74
2022/12/14 09:07:10;;;;;;;19.63;10.83;;;;;;;-4.31;93.76;99600.94;5024393;28;20049;-74
2022/12/14 09:09:36;;;;;;;21.77;11.97;;;;;;;-4.18;93.15;99598.00;5028384;28;20034;-74
2022/12/14 09:12:05;;;;;;;20.00;11.13;;;;;;;-4.11;92.42;99593.97;5024467;28;20048;-74
2022/12/14 09:14:30;;;;;;;20.83;12.17;;;;;;;-4.06;91.90;99586.38;5024619;28;20169;-74
2022/12/14 09:16:57;;;;;;;22.53;12.57;;;;;;;-4.01;92.19;99580.59;5023441;28;20061;-74
2022/12/14 09:19:23;;;;;;;33.53;17.47;;;;;;;-3.89;92.21;99579.28;5024203;28;20395;-74
2022/12/14 09:21:48;;;;;;;38.10;20.40;;;;;;;-3.75;93.38;99572.91;5020662;28;20030;-74
2022/12/14 09:24:13;;;;;;;36.30;20.57;;;;;;;-3.61;93.68;99571.72;5008999;28;20057;-74
2022/12/14 09:26:39;;;;;;;25.13;13.73;;;;;;;-3.50;91.70;99571.22;5028109;28;20048;-74
2022/12/14 09:29:04;;;;;;;21.67;12.37;;;;;;;-3.40;90.90;99571.56;5024256;28;20033;-74
2022/12/14 09:31:29;;;;;;;19.60;11.60;;;;;;;-3.38;90.78;99556.13;5022701;28;20512;-74
2022/12/14 09:33:55;;;;;;;22.93;13.30;;;;;;;-3.27;91.27;99552.22;5019722;28;20040;-74
2022/12/14 09:36:25;;;;;;;31.33;16.70;;;;;;;-3.16;90.71;99545.72;5028307;28;20108;-74
2022/12/14 09:38:54;;;;;;;70.83;19.47;;;;;;;-3.06;90.03;99530.53;5025863;28;20116;-74
2022/12/14 09:41:26;;;;;;;23.30;12.00;;;;;;;-3.14;87.38;99533.75;5025638;28;20490;-74
2022/12/14 09:44:23;;;;;;;19.27;10.80;;;;;;;-3.06;88.82;99535.69;5023471;28;20518;-74
2022/12/14 09:47:04;;;;;;;16.93;9.53;;;;;;;-3.00;88.33;99533.31;5023565;28;20069;-74
2022/12/14 09:49:33;;;;;;;21.23;10.47;;;;;;;-2.91;88.16;99525.84;5025103;28;20148;-74
2022/12/14 09:52:01;;;;;;;15.27;9.87;;;;;;;-2.81;87.73;99512.38;5022651;28;20038;-74
2022/12/14 09:54:31;;;;;;;17.97;9.50;;;;;;;-2.71;88.87;99511.84;5022887;28;20127;-74
2022/12/14 09:57:02;;;;;;;17.40;9.60;;;;;;;-2.50;88.58;99509.03;5024837;28;20536;-74
2022/12/14 09:59:30;;;;;;;15.50;9.10;;;;;;;-2.33;87.95;99503.47;5020590;28;20076;-74
2022/12/14 10:02:18;;;;;;;22.17;12.97;;;;;;;-2.19;86.97;99496.13;5023155;28;20040;-74
2022/12/14 10:04:54;;;;;;;21.43;12.10;;;;;;;-2.09;87.17;99483.50;5024321;28;20045;-74
2022/12/14 10:07:33;;;;;;;20.60;11.57;;;;;;;-1.99;87.40;99492.41;5024896;28;20041;-74
2022/12/14 10:10:25;;;;;;;18.23;10.63;;;;;;;-1.81;88.19;99497.16;5024975;28;20511;-74
2022/12/14 10:13:26;;;;;;;18.33;10.68;;;;;;;-1.74;86.22;99501.66;5020902;28;20041;-74
2022/12/14 10:16:09;;;;;;;17.73;10.83;;;;;;;-1.82;86.68;99500.59;5023175;28;20040;-74
2022/12/14 10:18:50;;;;;;;16.70;10.23;;;;;;;-1.71;87.03;99498.28;5028197;28;20124;-75
2022/12/14 10:21:22;;;;;;;16.23;10.20;;;;;;;-1.58;87.28;99482.25;5022952;28;20436;-74
2022/12/14 10:23:55;;;;;;;17.80;10.60;;;;;;;-1.46;86.39;99473.94;5020790;28;20033;-74
2022/12/14 10:26:25;;;;;;;15.83;9.83;;;;;;;-1.37;86.03;99466.38;5027178;28;20033;-74
2022/12/14 10:29:33;;;;;;;16.73;9.83;;;;;;;-1.30;84.81;99464.81;5023809;28;20040;-74
2022/12/14 10:32:20;;;;;;;16.13;9.53;;;;;;;-1.31;85.81;99461.38;5010304;28;20053;-74
2022/12/14 10:34:46;;;;;;;21.07;11.87;;;;;;;-1.32;85.20;99463.06;5023040;28;20615;-74
2022/12/14 10:37:22;;;;;;;16.80;10.77;;;;;;;-1.32;86.08;99463.06;5022656;28;20092;-74
2022/12/14 10:39:58;;;;;;;18.93;10.23;;;;;;;-1.15;86.29;99462.63;5022672;28;20446;-74
2022/12/14 10:42:46;;;;;;;15.37;9.80;;;;;;;-1.01;85.91;99456.03;5020113;28;20488;-74
2022/12/14 10:45:37;;;;;;;17.20;10.00;;;;;;;-0.89;85.75;99461.50;5024563;28;20500;-74
2022/12/14 10:48:24;;;;;;;16.27;10.13;;;;;;;-0.85;85.32;99448.59;5023638;28;20042;-74
2022/12/14 10:51:00;;;;;;;14.77;9.73;;;;;;;-0.91;84.83;99452.81;5022047;28;20045;-74
2022/12/14 10:53:40;;;;;;;18.23;10.33;;;;;;;-0.94;84.69;99451.88;5021635;28;20109;-75
2022/12/14 10:56:12;;;;;;;16.97;10.00;;;;;;;-0.92;85.86;99451.06;5021205;28;20128;-74
2022/12/14 10:58:37;;;;;;;;;;;;;;;-0.84;85.37;99445.16;5023080;28;20126;-74
2022/12/14 11:01:03;;;;;;;19.27;11.97;;;;;;;-0.84;85.31;99442.56;5019111;28;19951;-74
2022/12/14 11:03:28;;;;;;;16.97;10.70;;;;;;;-0.79;86.05;99433.19;5023582;28;20029;-73
2022/12/14 11:06:04;;;;;;;18.37;11.73;;;;;;;-0.72;85.74;99435.94;5024214;28;20041;-74
2022/12/14 11:08:47;;;;;;;17.57;10.60;;;;;;;-0.70;85.74;99439.44;5027997;28;20124;-74
2022/12/14 11:11:19;;;;;;;16.47;10.13;;;;;;;-0.79;85.63;99439.22;5026600;28;20029;-74
2022/12/14 11:14:06;;;;;;;15.95;10.07;;;;;;;-0.85;86.23;99422.69;5027230;28;20113;-74
2022/12/14 11:16:37;;;;;;;16.53;9.97;;;;;;;-0.74;85.98;99426.38;5022041;28;20043;-74
2022/12/14 11:19:13;;;;;;;15.00;10.03;;;;;;;-0.71;84.78;99421.25;5026388;28;20037;-74
2022/12/14 11:21:38;;;;;;;17.27;10.93;;;;;;;-0.71;85.66;99426.44;5023124;28;20148;-74
2022/12/14 11:24:05;;;;;;;19.07;11.60;;;;;;;-0.69;85.61;99419.59;5024188;28;20162;-74
2022/12/14 11:26:41;;;;;;;15.90;9.43;;;;;;;-0.64;86.03;99411.91;5026604;28;20100;-74
2022/12/14 11:29:18;;;;;;;17.23;10.77;;;;;;;-0.62;86.06;99400.75;5025580;28;20040;-73
2022/12/14 11:31:46;;;;;;;13.50;9.67;;;;;;;-0.60;85.63;99399.06;5020073;28;20092;-74
2022/12/14 11:34:39;;;;;;;15.73;10.17;;;;;;;-0.61;86.21;99401.59;5024848;28;20786;-74
2022/12/14 11:37:20;;;;;;;15.27;10.10;;;;;;;-0.62;84.91;99408.50;5021448;28;20536;-74
2022/12/14 11:39:50;;;;;;;13.23;8.93;;;;;;;-0.54;85.89;99401.78;5026467;28;20443;-73
2022/12/14 11:42:17;;;;;;;14.50;10.20;;;;;;;-0.44;85.94;99402.84;5024724;28;20554;-74
2022/12/14 11:44:45;;;;;;;16.33;10.30;;;;;;;-0.40;85.85;99396.84;5029451;28;20110;-73